sensor_id;sensor_type;location;lat;lon;timestamp;P1;durP1;ratioP1;P2;durP2;ratioP2
75499;SDS011;64076;51.466;7.260;2022-10-26T00:02:20;1.98;;;1.13;;
75499;SDS011;64076;51.466;7.260;2022-10-26T00:04:46;2.33;;;1.33;;
75499;SDS011;64076;51.466;7.260;2022-10-26T00:07:11;2.60;;;1.23;;
75499;SDS011;64076;51.466;7.260;2022-10-26T00:09:37;2.38;;;1.35;;
75499;SDS011;64076;51.466;7.260;2022-10-26T00:12:02;2.37;;;1.40;;
75499;SDS011;64076;51.466;7.260;2022-10-26T00:14:28;2.23;;;1.40;;
75499;SDS011;64076;51.466;7.260;2022-10-26T00:16:54;2.58;;;1.38;;
75499;SDS011;64076;51.466;7.260;2022-10-26T00:19:19;2.33;;;1.40;;
75499;SDS011;64076;51.466;7.260;2022-10-26T00:21:45;2.72;;;1.23;;
75499;SDS011;64076;51.466;7.260;2022-10-26T00:24:10;2.10;;;1.20;;
75499;SDS011;64076;51.466;7.260;2022-10-26T00:26:37;2.10;;;1.23;;
75499;SDS011;64076;51.466;7.260;2022-10-26T00:29:03;2.45;;;1.30;;
75499;SDS011;64076;51.466;7.260;2022-10-26T00:31:31;2.22;;;1.33;;
75499;SDS011;64076;51.466;7.260;2022-10-26T00:33:57;2.87;;;1.50;;
75499;SDS011;64076;51.466;7.260;2022-10-26T00:36:23;2.78;;;1.30;;
75499;SDS011;64076;51.466;7.260;2022-10-26T00:38:50;2.87;;;1.60;;
75499;SDS011;64076;51.466;7.260;2022-10-26T00:41:21;1.95;;;1.25;;
75499;SDS011;64076;51.466;7.260;2022-10-26T00:43:51;2.08;;;1.20;;
75499;SDS011;64076;51.466;7.260;2022-10-26T00:46:21;2.53;;;1.45;;
75499;SDS011;64076;51.466;7.260;2022-10-26T00:48:55;2.40;;;1.30;;
75499;SDS011;64076;51.466;7.260;2022-10-26T00:51:31;1.93;;;1.30;;
75499;SDS011;64076;51.466;7.260;2022-10-26T00:54:03;2.22;;;1.17;;
75499;SDS011;64076;51.466;7.260;2022-10-26T00:56:30;3.25;;;1.50;;
75499;SDS011;64076;51.466;7.260;2022-10-26T00:58:59;2.40;;;1.40;;
75499;SDS011;64076;51.466;7.260;2022-10-26T01:01:27;1.77;;;1.10;;
75499;SDS011;64076;51.466;7.260;2022-10-26T01:03:55;2.30;;;1.40;;
75499;SDS011;64076;51.466;7.260;2022-10-26T01:06:22;1.80;;;1.20;;
75499;SDS011;64076;51.466;7.260;2022-10-26T01:08:48;2.15;;;1.23;;
75499;SDS011;64076;51.466;7.260;2022-10-26T01:11:14;2.38;;;1.35;;
75499;SDS011;64076;51.466;7.260;2022-10-26T01:13:40;2.90;;;1.30;;
75499;SDS011;64076;51.466;7.260;2022-10-26T01:24:31;2.53;;;1.63;;
75499;SDS011;64076;51.466;7.260;2022-10-26T01:27:19;2.85;;;1.33;;
75499;SDS011;64076;51.466;7.260;2022-10-26T01:32:38;2.10;;;1.30;;
75499;SDS011;64076;51.466;7.260;2022-10-26T01:35:31;2.63;;;1.42;;
75499;SDS011;64076;51.466;7.260;2022-10-26T01:38:06;2.40;;;1.23;;
75499;SDS011;64076;51.466;7.260;2022-10-26T01:40:34;2.42;;;1.25;;
75499;SDS011;64076;51.466;7.260;2022-10-26T01:43:08;2.20;;;1.23;;
75499;SDS011;64076;51.466;7.260;2022-10-26T01:45:36;1.83;;;1.20;;
75499;SDS011;64076;51.466;7.260;2022-10-26T01:48:05;2.08;;;1.27;;
75499;SDS011;64076;51.466;7.260;2022-10-26T01:50:36;1.90;;;1.03;;
75499;SDS011;64076;51.466;7.260;2022-10-26T01:53:04;1.75;;;1.23;;
75499;SDS011;64076;51.466;7.260;2022-10-26T01:55:39;2.50;;;1.40;;
75499;SDS011;64076;51.466;7.260;2022-10-26T01:58:21;2.33;;;1.40;;
75499;SDS011;64076;51.466;7.260;2022-10-26T02:01:27;3.78;;;1.60;;
75499;SDS011;64076;51.466;7.260;2022-10-26T02:04:00;2.42;;;1.30;;
75499;SDS011;64076;51.466;7.260;2022-10-26T02:07:00;2.13;;;1.30;;
75499;SDS011;64076;51.466;7.260;2022-10-26T02:12:07;2.53;;;1.40;;
75499;SDS011;64076;51.466;7.260;2022-10-26T02:17:11;2.45;;;1.33;;
75499;SDS011;64076;51.466;7.260;2022-10-26T02:20:02;2.05;;;1.33;;
75499;SDS011;64076;51.466;7.260;2022-10-26T02:22:33;2.28;;;1.30;;
75499;SDS011;64076;51.466;7.260;2022-10-26T02:25:06;2.93;;;1.50;;
75499;SDS011;64076;51.466;7.260;2022-10-26T02:27:36;2.72;;;1.40;;
75499;SDS011;64076;51.466;7.260;2022-10-26T02:30:06;2.38;;;1.30;;
75499;SDS011;64076;51.466;7.260;2022-10-26T02:32:34;2.70;;;1.38;;
75499;SDS011;64076;51.466;7.260;2022-10-26T02:35:03;2.35;;;1.40;;
75499;SDS011;64076;51.466;7.260;2022-10-26T02:37:30;2.50;;;1.40;;
75499;SDS011;64076;51.466;7.260;2022-10-26T02:39:58;2.10;;;1.40;;
75499;SDS011;64076;51.466;7.260;2022-10-26T02:42:27;2.05;;;1.40;;
75499;SDS011;64076;51.466;7.260;2022-10-26T02:44:56;2.50;;;1.38;;
75499;SDS011;64076;51.466;7.260;2022-10-26T02:47:26;2.38;;;1.50;;
75499;SDS011;64076;51.466;7.260;2022-10-26T02:49:52;2.20;;;1.40;;
75499;SDS011;64076;51.466;7.260;2022-10-26T02:55:17;3.10;;;1.67;;
75499;SDS011;64076;51.466;7.260;2022-10-26T02:57:48;2.60;;;1.50;;
75499;SDS011;64076;51.466;7.260;2022-10-26T03:00:18;3.58;;;1.88;;
75499;SDS011;64076;51.466;7.260;2022-10-26T03:02:45;2.63;;;1.30;;
75499;SDS011;64076;51.466;7.260;2022-10-26T03:05:18;2.08;;;1.50;;
75499;SDS011;64076;51.466;7.260;2022-10-26T03:07:49;2.25;;;1.30;;
75499;SDS011;64076;51.466;7.260;2022-10-26T03:10:14;2.47;;;1.40;;
75499;SDS011;64076;51.466;7.260;2022-10-26T03:12:40;2.53;;;1.47;;
75499;SDS011;64076;51.466;7.260;2022-10-26T03:15:05;2.15;;;1.38;;
75499;SDS011;64076;51.466;7.260;2022-10-26T03:17:31;2.20;;;1.50;;
75499;SDS011;64076;51.466;7.260;2022-10-26T03:19:57;2.13;;;1.43;;
75499;SDS011;64076;51.466;7.260;2022-10-26T03:22:22;2.10;;;1.20;;
75499;SDS011;64076;51.466;7.260;2022-10-26T03:24:48;2.10;;;1.40;;
75499;SDS011;64076;51.466;7.260;2022-10-26T03:27:13;2.47;;;1.60;;
75499;SDS011;64076;51.466;7.260;2022-10-26T03:29:39;2.50;;;1.67;;
75499;SDS011;64076;51.466;7.260;2022-10-26T03:32:05;2.22;;;1.65;;
75499;SDS011;64076;51.466;7.260;2022-10-26T03:34:31;2.63;;;1.57;;
75499;SDS011;64076;51.466;7.260;2022-10-26T03:36:56;2.25;;;1.30;;
75499;SDS011;64076;51.466;7.260;2022-10-26T03:39:22;2.83;;;1.60;;
75499;SDS011;64076;51.466;7.260;2022-10-26T03:41:48;2.88;;;1.20;;
75499;SDS011;64076;51.466;7.260;2022-10-26T03:44:13;1.83;;;1.30;;
75499;SDS011;64076;51.466;7.260;2022-10-26T03:46:39;2.40;;;1.33;;
75499;SDS011;64076;51.466;7.260;2022-10-26T03:49:04;2.67;;;1.50;;
75499;SDS011;64076;51.466;7.260;2022-10-26T03:51:30;1.97;;;1.30;;
75499;SDS011;64076;51.466;7.260;2022-10-26T03:53:56;2.22;;;1.50;;
75499;SDS011;64076;51.466;7.260;2022-10-26T03:56:21;2.87;;;1.70;;
75499;SDS011;64076;51.466;7.260;2022-10-26T03:58:47;2.22;;;1.33;;
75499;SDS011;64076;51.466;7.260;2022-10-26T04:01:12;2.73;;;1.67;;
75499;SDS011;64076;51.466;7.260;2022-10-26T04:03:38;1.92;;;1.38;;
75499;SDS011;64076;51.466;7.260;2022-10-26T04:06:04;2.20;;;1.40;;
75499;SDS011;64076;51.466;7.260;2022-10-26T04:08:29;2.80;;;1.48;;
75499;SDS011;64076;51.466;7.260;2022-10-26T04:10:55;2.40;;;1.50;;
75499;SDS011;64076;51.466;7.260;2022-10-26T04:13:20;2.07;;;1.43;;
75499;SDS011;64076;51.466;7.260;2022-10-26T04:15:46;2.30;;;1.50;;
75499;SDS011;64076;51.466;7.260;2022-10-26T04:18:11;3.00;;;1.30;;
75499;SDS011;64076;51.466;7.260;2022-10-26T04:20:37;2.17;;;1.47;;
75499;SDS011;64076;51.466;7.260;2022-10-26T04:23:05;2.88;;;1.35;;
75499;SDS011;64076;51.466;7.260;2022-10-26T04:25:34;2.80;;;1.45;;
75499;SDS011;64076;51.466;7.260;2022-10-26T04:28:00;2.23;;;1.60;;
75499;SDS011;64076;51.466;7.260;2022-10-26T04:30:27;2.00;;;1.30;;
75499;SDS011;64076;51.466;7.260;2022-10-26T04:32:53;2.03;;;1.30;;
75499;SDS011;64076;51.466;7.260;2022-10-26T04:35:19;2.13;;;1.30;;
75499;SDS011;64076;51.466;7.260;2022-10-26T04:37:44;2.50;;;1.50;;
75499;SDS011;64076;51.466;7.260;2022-10-26T04:40:10;2.50;;;1.40;;
75499;SDS011;64076;51.466;7.260;2022-10-26T04:42:39;2.50;;;1.40;;
75499;SDS011;64076;51.466;7.260;2022-10-26T04:45:09;2.40;;;1.20;;
75499;SDS011;64076;51.466;7.260;2022-10-26T04:47:35;2.00;;;1.30;;
75499;SDS011;64076;51.466;7.260;2022-10-26T04:50:01;2.00;;;1.53;;
75499;SDS011;64076;51.466;7.260;2022-10-26T04:52:26;2.22;;;1.20;;
75499;SDS011;64076;51.466;7.260;2022-10-26T04:54:52;2.10;;;1.50;;
75499;SDS011;64076;51.466;7.260;2022-10-26T04:57:17;2.05;;;1.40;;
75499;SDS011;64076;51.466;7.260;2022-10-26T04:59:43;2.67;;;1.50;;
75499;SDS011;64076;51.466;7.260;2022-10-26T05:02:08;2.70;;;1.30;;
75499;SDS011;64076;51.466;7.260;2022-10-26T05:04:34;3.10;;;1.65;;
75499;SDS011;64076;51.466;7.260;2022-10-26T05:06:59;2.43;;;1.50;;
75499;SDS011;64076;51.466;7.260;2022-10-26T05:09:25;3.37;;;1.40;;
75499;SDS011;64076;51.466;7.260;2022-10-26T05:11:50;2.03;;;1.50;;
75499;SDS011;64076;51.466;7.260;2022-10-26T05:14:16;2.47;;;1.33;;
75499;SDS011;64076;51.466;7.260;2022-10-26T05:16:41;2.90;;;1.70;;
75499;SDS011;64076;51.466;7.260;2022-10-26T05:19:08;2.95;;;1.40;;
75499;SDS011;64076;51.466;7.260;2022-10-26T05:21:34;1.95;;;1.15;;
75499;SDS011;64076;51.466;7.260;2022-10-26T05:24:00;1.80;;;1.10;;
75499;SDS011;64076;51.466;7.260;2022-10-26T05:26:25;1.73;;;1.30;;
75499;SDS011;64076;51.466;7.260;2022-10-26T05:28:51;1.80;;;1.20;;
75499;SDS011;64076;51.466;7.260;2022-10-26T05:31:18;1.88;;;1.10;;
75499;SDS011;64076;51.466;7.260;2022-10-26T05:33:47;1.73;;;1.00;;
75499;SDS011;64076;51.466;7.260;2022-10-26T05:36:14;1.50;;;1.08;;
75499;SDS011;64076;51.466;7.260;2022-10-26T05:38:41;2.08;;;1.00;;
75499;SDS011;64076;51.466;7.260;2022-10-26T05:41:06;1.90;;;1.00;;
75499;SDS011;64076;51.466;7.260;2022-10-26T05:43:32;1.67;;;0.90;;
75499;SDS011;64076;51.466;7.260;2022-10-26T05:45:57;1.60;;;1.20;;
75499;SDS011;64076;51.466;7.260;2022-10-26T05:48:23;1.80;;;1.10;;
75499;SDS011;64076;51.466;7.260;2022-10-26T05:50:48;2.37;;;1.20;;
75499;SDS011;64076;51.466;7.260;2022-10-26T05:53:14;1.70;;;1.00;;
75499;SDS011;64076;51.466;7.260;2022-10-26T05:55:40;1.80;;;0.90;;
75499;SDS011;64076;51.466;7.260;2022-10-26T05:58:10;1.67;;;1.00;;
75499;SDS011;64076;51.466;7.260;2022-10-26T06:00:37;1.92;;;0.85;;
75499;SDS011;64076;51.466;7.260;2022-10-26T06:06:06;1.67;;;0.98;;
75499;SDS011;64076;51.466;7.260;2022-10-26T06:08:32;2.30;;;1.00;;
75499;SDS011;64076;51.466;7.260;2022-10-26T06:10:57;2.10;;;0.90;;
75499;SDS011;64076;51.466;7.260;2022-10-26T06:13:23;1.58;;;0.95;;
75499;SDS011;64076;51.466;7.260;2022-10-26T06:21:19;1.95;;;0.70;;
75499;SDS011;64076;51.466;7.260;2022-10-26T06:23:53;1.75;;;0.88;;
75499;SDS011;64076;51.466;7.260;2022-10-26T06:29:19;1.63;;;0.98;;
75499;SDS011;64076;51.466;7.260;2022-10-26T06:32:03;1.33;;;0.80;;
75499;SDS011;64076;51.466;7.260;2022-10-26T06:34:32;1.30;;;0.77;;
75499;SDS011;64076;51.466;7.260;2022-10-26T06:36:59;2.10;;;0.90;;
75499;SDS011;64076;51.466;7.260;2022-10-26T06:39:28;1.30;;;0.90;;
75499;SDS011;64076;51.466;7.260;2022-10-26T06:41:59;1.35;;;0.68;;
75499;SDS011;64076;51.466;7.260;2022-10-26T06:44:25;1.58;;;0.90;;
75499;SDS011;64076;51.466;7.260;2022-10-26T06:49:36;1.95;;;0.70;;
75499;SDS011;64076;51.466;7.260;2022-10-26T06:52:14;1.50;;;0.80;;
75499;SDS011;64076;51.466;7.260;2022-10-26T06:54:49;1.20;;;0.50;;
75499;SDS011;64076;51.466;7.260;2022-10-26T06:57:18;1.40;;;0.70;;
75499;SDS011;64076;51.466;7.260;2022-10-26T06:59:52;1.27;;;0.67;;
75499;SDS011;64076;51.466;7.260;2022-10-26T07:02:21;1.90;;;0.80;;
75499;SDS011;64076;51.466;7.260;2022-10-26T07:04:47;1.25;;;0.70;;
75499;SDS011;64076;51.466;7.260;2022-10-26T07:07:13;1.30;;;0.70;;
75499;SDS011;64076;51.466;7.260;2022-10-26T07:09:41;1.20;;;0.73;;
75499;SDS011;64076;51.466;7.260;2022-10-26T07:12:06;1.43;;;0.70;;
75499;SDS011;64076;51.466;7.260;2022-10-26T07:14:32;2.00;;;0.80;;
75499;SDS011;64076;51.466;7.260;2022-10-26T07:16:58;1.40;;;0.70;;
75499;SDS011;64076;51.466;7.260;2022-10-26T07:19:23;1.80;;;0.80;;
75499;SDS011;64076;51.466;7.260;2022-10-26T07:21:49;1.47;;;0.70;;
75499;SDS011;64076;51.466;7.260;2022-10-26T07:24:15;1.53;;;0.70;;
75499;SDS011;64076;51.466;7.260;2022-10-26T07:26:40;1.92;;;0.63;;
75499;SDS011;64076;51.466;7.260;2022-10-26T07:29:06;1.40;;;0.60;;
75499;SDS011;64076;51.466;7.260;2022-10-26T07:31:31;1.27;;;0.70;;
75499;SDS011;64076;51.466;7.260;2022-10-26T07:33:57;1.20;;;0.70;;
75499;SDS011;64076;51.466;7.260;2022-10-26T07:36:22;1.33;;;0.73;;
75499;SDS011;64076;51.466;7.260;2022-10-26T07:38:51;3.15;;;0.70;;
75499;SDS011;64076;51.466;7.260;2022-10-26T07:41:18;1.20;;;0.60;;
75499;SDS011;64076;51.466;7.260;2022-10-26T07:43:44;1.10;;;0.60;;
75499;SDS011;64076;51.466;7.260;2022-10-26T07:46:10;1.70;;;0.70;;
75499;SDS011;64076;51.466;7.260;2022-10-26T07:48:36;1.00;;;0.60;;
75499;SDS011;64076;51.466;7.260;2022-10-26T07:51:02;2.03;;;0.70;;
75499;SDS011;64076;51.466;7.260;2022-10-26T07:53:28;1.10;;;0.60;;
75499;SDS011;64076;51.466;7.260;2022-10-26T07:55:54;1.87;;;0.70;;
75499;SDS011;64076;51.466;7.260;2022-10-26T07:58:20;1.90;;;0.70;;
75499;SDS011;64076;51.466;7.260;2022-10-26T08:00:49;1.23;;;0.65;;
75499;SDS011;64076;51.466;7.260;2022-10-26T08:03:16;1.13;;;0.63;;
75499;SDS011;64076;51.466;7.260;2022-10-26T08:05:42;1.40;;;0.60;;
75499;SDS011;64076;51.466;7.260;2022-10-26T08:08:11;1.50;;;0.70;;
75499;SDS011;64076;51.466;7.260;2022-10-26T08:10:36;1.10;;;0.60;;
75499;SDS011;64076;51.466;7.260;2022-10-26T08:13:05;1.10;;;0.57;;
75499;SDS011;64076;51.466;7.260;2022-10-26T08:15:31;1.20;;;0.50;;
75499;SDS011;64076;51.466;7.260;2022-10-26T08:17:56;1.20;;;0.50;;
75499;SDS011;64076;51.466;7.260;2022-10-26T08:20:22;1.15;;;0.50;;
75499;SDS011;64076;51.466;7.260;2022-10-26T08:22:47;2.13;;;0.40;;
75499;SDS011;64076;51.466;7.260;2022-10-26T08:25:13;0.93;;;0.40;;
75499;SDS011;64076;51.466;7.260;2022-10-26T08:27:38;1.20;;;0.47;;
75499;SDS011;64076;51.466;7.260;2022-10-26T08:30:04;1.20;;;0.70;;
75499;SDS011;64076;51.466;7.260;2022-10-26T08:32:30;1.00;;;0.50;;
75499;SDS011;64076;51.466;7.260;2022-10-26T08:34:56;1.23;;;0.50;;
75499;SDS011;64076;51.466;7.260;2022-10-26T08:37:21;1.37;;;0.70;;
75499;SDS011;64076;51.466;7.260;2022-10-26T08:39:47;1.38;;;0.32;;
75499;SDS011;64076;51.466;7.260;2022-10-26T08:42:16;1.20;;;0.50;;
75499;SDS011;64076;51.466;7.260;2022-10-26T08:44:47;1.25;;;0.40;;
75499;SDS011;64076;51.466;7.260;2022-10-26T08:47:22;1.30;;;0.50;;
75499;SDS011;64076;51.466;7.260;2022-10-26T08:49:59;1.20;;;0.50;;
75499;SDS011;64076;51.466;7.260;2022-10-26T08:52:35;1.27;;;0.50;;
75499;SDS011;64076;51.466;7.260;2022-10-26T08:55:06;1.02;;;0.40;;
75499;SDS011;64076;51.466;7.260;2022-10-26T08:57:39;1.30;;;0.50;;
75499;SDS011;64076;51.466;7.260;2022-10-26T09:00:10;1.60;;;0.70;;
75499;SDS011;64076;51.466;7.260;2022-10-26T09:02:39;1.87;;;0.50;;
75499;SDS011;64076;51.466;7.260;2022-10-26T09:05:11;1.27;;;0.50;;
75499;SDS011;64076;51.466;7.260;2022-10-26T09:21:27;1.20;;;0.73;;
75499;SDS011;64076;51.466;7.260;2022-10-26T09:24:04;1.57;;;0.40;;
75499;SDS011;64076;51.466;7.260;2022-10-26T09:26:47;1.75;;;0.50;;
75499;SDS011;64076;51.466;7.260;2022-10-26T09:29:22;1.17;;;0.70;;
75499;SDS011;64076;51.466;7.260;2022-10-26T09:31:52;1.05;;;0.43;;
75499;SDS011;64076;51.466;7.260;2022-10-26T09:34:23;2.70;;;0.55;;
75499;SDS011;64076;51.466;7.260;2022-10-26T09:37:00;1.30;;;0.60;;
75499;SDS011;64076;51.466;7.260;2022-10-26T09:39:46;1.02;;;0.40;;
75499;SDS011;64076;51.466;7.260;2022-10-26T09:47:45;1.10;;;0.50;;
75499;SDS011;64076;51.466;7.260;2022-10-26T09:52:51;1.52;;;0.57;;
75499;SDS011;64076;51.466;7.260;2022-10-26T09:55:16;1.20;;;0.60;;
75499;SDS011;64076;51.466;7.260;2022-10-26T09:57:44;1.00;;;0.50;;
75499;SDS011;64076;51.466;7.260;2022-10-26T10:00:11;1.40;;;0.63;;
75499;SDS011;64076;51.466;7.260;2022-10-26T10:02:42;1.10;;;0.40;;
75499;SDS011;64076;51.466;7.260;2022-10-26T10:05:29;1.15;;;0.60;;
75499;SDS011;64076;51.466;7.260;2022-10-26T10:08:09;1.40;;;0.70;;
75499;SDS011;64076;51.466;7.260;2022-10-26T10:10:52;1.50;;;0.60;;
75499;SDS011;64076;51.466;7.260;2022-10-26T10:13:21;1.42;;;0.68;;
75499;SDS011;64076;51.466;7.260;2022-10-26T10:15:52;1.98;;;0.82;;
75499;SDS011;64076;51.466;7.260;2022-10-26T10:18:19;1.00;;;0.57;;
75499;SDS011;64076;51.466;7.260;2022-10-26T10:20:50;1.38;;;0.60;;
75499;SDS011;64076;51.466;7.260;2022-10-26T10:23:23;1.60;;;0.70;;
75499;SDS011;64076;51.466;7.260;2022-10-26T10:25:58;1.30;;;0.70;;
75499;SDS011;64076;51.466;7.260;2022-10-26T10:28:31;2.35;;;0.73;;
75499;SDS011;64076;51.466;7.260;2022-10-26T10:30:58;1.80;;;0.80;;
75499;SDS011;64076;51.466;7.260;2022-10-26T10:33:33;2.83;;;0.82;;
75499;SDS011;64076;51.466;7.260;2022-10-26T10:36:15;2.37;;;0.70;;
75499;SDS011;64076;51.466;7.260;2022-10-26T10:38:44;1.30;;;0.60;;
75499;SDS011;64076;51.466;7.260;2022-10-26T10:41:24;1.70;;;0.90;;
75499;SDS011;64076;51.466;7.260;2022-10-26T10:44:04;3.17;;;0.80;;
75499;SDS011;64076;51.466;7.260;2022-10-26T10:46:37;1.55;;;0.77;;
75499;SDS011;64076;51.466;7.260;2022-10-26T10:49:04;1.60;;;1.07;;
75499;SDS011;64076;51.466;7.260;2022-10-26T10:51:45;1.42;;;0.80;;
75499;SDS011;64076;51.466;7.260;2022-10-26T10:54:54;1.30;;;0.77;;
75499;SDS011;64076;51.466;7.260;2022-10-26T11:03:03;1.63;;;1.02;;
75499;SDS011;64076;51.466;7.260;2022-10-26T11:05:23;2.15;;;0.77;;
75499;SDS011;64076;51.466;7.260;2022-10-26T11:08:14;1.77;;;1.00;;
75499;SDS011;64076;51.466;7.260;2022-10-26T11:10:46;1.58;;;0.80;;
75499;SDS011;64076;51.466;7.260;2022-10-26T11:13:26;1.87;;;1.03;;
75499;SDS011;64076;51.466;7.260;2022-10-26T11:15:59;2.03;;;0.77;;
75499;SDS011;64076;51.466;7.260;2022-10-26T11:18:30;2.97;;;1.00;;
75499;SDS011;64076;51.466;7.260;2022-10-26T11:21:03;1.75;;;1.00;;
75499;SDS011;64076;51.466;7.260;2022-10-26T11:23:51;1.70;;;0.90;;
75499;SDS011;64076;51.466;7.260;2022-10-26T11:26:34;2.13;;;0.97;;
75499;SDS011;64076;51.466;7.260;2022-10-26T11:29:05;1.80;;;0.90;;
75499;SDS011;64076;51.466;7.260;2022-10-26T11:31:39;1.63;;;1.13;;
75499;SDS011;64076;51.466;7.260;2022-10-26T11:36:46;3.35;;;0.70;;
75499;SDS011;64076;51.466;7.260;2022-10-26T11:39:18;2.03;;;1.00;;
75499;SDS011;64076;51.466;7.260;2022-10-26T11:41:49;2.45;;;0.80;;
75499;SDS011;64076;51.466;7.260;2022-10-26T11:47:36;2.88;;;1.00;;
75499;SDS011;64076;51.466;7.260;2022-10-26T11:53:38;3.17;;;0.80;;
75499;SDS011;64076;51.466;7.260;2022-10-26T11:55:49;1.88;;;1.10;;
75499;SDS011;64076;51.466;7.260;2022-10-26T11:58:16;3.13;;;1.08;;
75499;SDS011;64076;51.466;7.260;2022-10-26T12:00:43;4.22;;;1.17;;
75499;SDS011;64076;51.466;7.260;2022-10-26T12:03:14;3.75;;;1.00;;
75499;SDS011;64076;51.466;7.260;2022-10-26T12:05:44;1.57;;;0.80;;
75499;SDS011;64076;51.466;7.260;2022-10-26T12:13:49;2.05;;;0.98;;
75499;SDS011;64076;51.466;7.260;2022-10-26T12:19:17;2.87;;;1.00;;
75499;SDS011;64076;51.466;7.260;2022-10-26T12:21:56;1.70;;;0.90;;
75499;SDS011;64076;51.466;7.260;2022-10-26T12:26:51;1.87;;;0.93;;
75499;SDS011;64076;51.466;7.260;2022-10-26T12:29:31;1.63;;;1.00;;
75499;SDS011;64076;51.466;7.260;2022-10-26T12:32:03;1.42;;;0.80;;
75499;SDS011;64076;51.466;7.260;2022-10-26T12:37:21;2.00;;;0.83;;
75499;SDS011;64076;51.466;7.260;2022-10-26T12:39:48;1.77;;;1.10;;
75499;SDS011;64076;51.466;7.260;2022-10-26T12:47:09;1.65;;;0.90;;
75499;SDS011;64076;51.466;7.260;2022-10-26T12:52:42;1.83;;;0.75;;
75499;SDS011;64076;51.466;7.260;2022-10-26T12:58:02;1.52;;;0.95;;
75499;SDS011;64076;51.466;7.260;2022-10-26T13:01:07;1.80;;;0.95;;
75499;SDS011;64076;51.466;7.260;2022-10-26T13:06:45;1.73;;;0.63;;
75499;SDS011;64076;51.466;7.260;2022-10-26T13:09:30;1.75;;;0.80;;
75499;SDS011;64076;51.466;7.260;2022-10-26T13:11:57;1.75;;;0.70;;
75499;SDS011;64076;51.466;7.260;2022-10-26T13:14:28;1.23;;;0.60;;
75499;SDS011;64076;51.466;7.260;2022-10-26T13:16:58;1.93;;;0.80;;
75499;SDS011;64076;51.466;7.260;2022-10-26T13:19:36;1.52;;;0.63;;
75499;SDS011;64076;51.466;7.260;2022-10-26T13:22:11;1.75;;;0.80;;
75499;SDS011;64076;51.466;7.260;2022-10-26T13:24:39;2.17;;;0.90;;
75499;SDS011;64076;51.466;7.260;2022-10-26T13:32:29;1.60;;;0.60;;
75499;SDS011;64076;51.466;7.260;2022-10-26T13:37:32;1.50;;;0.82;;
75499;SDS011;64076;51.466;7.260;2022-10-26T13:39:59;2.28;;;0.93;;
75499;SDS011;64076;51.466;7.260;2022-10-26T13:42:31;2.40;;;0.70;;
75499;SDS011;64076;51.466;7.260;2022-10-26T13:45:04;2.47;;;0.93;;
75499;SDS011;64076;51.466;7.260;2022-10-26T13:47:41;3.10;;;0.80;;
75499;SDS011;64076;51.466;7.260;2022-10-26T13:50:17;2.40;;;0.90;;
75499;SDS011;64076;51.466;7.260;2022-10-26T13:52:47;2.22;;;0.80;;
75499;SDS011;64076;51.466;7.260;2022-10-26T13:55:25;2.67;;;0.87;;
75499;SDS011;64076;51.466;7.260;2022-10-26T14:00:25;1.83;;;0.88;;
75499;SDS011;64076;51.466;7.260;2022-10-26T14:02:50;2.40;;;0.70;;
75499;SDS011;64076;51.466;7.260;2022-10-26T14:05:16;3.20;;;1.08;;
75499;SDS011;64076;51.466;7.260;2022-10-26T14:07:55;2.87;;;1.07;;
75499;SDS011;64076;51.466;7.260;2022-10-26T14:10:30;3.53;;;0.90;;
75499;SDS011;64076;51.466;7.260;2022-10-26T14:13:00;4.20;;;1.00;;
75499;SDS011;64076;51.466;7.260;2022-10-26T14:15:30;2.55;;;0.80;;
75499;SDS011;64076;51.466;7.260;2022-10-26T14:17:57;2.60;;;0.90;;
75499;SDS011;64076;51.466;7.260;2022-10-26T14:20:25;2.50;;;0.80;;
75499;SDS011;64076;51.466;7.260;2022-10-26T14:22:53;2.22;;;0.93;;
75499;SDS011;64076;51.466;7.260;2022-10-26T14:25:23;3.60;;;0.88;;
75499;SDS011;64076;51.466;7.260;2022-10-26T14:27:53;3.17;;;0.90;;
75499;SDS011;64076;51.466;7.260;2022-10-26T14:30:29;1.95;;;1.08;;
75499;SDS011;64076;51.466;7.260;2022-10-26T14:32:56;1.98;;;0.90;;
75499;SDS011;64076;51.466;7.260;2022-10-26T14:35:23;2.45;;;1.17;;
75499;SDS011;64076;51.466;7.260;2022-10-26T14:37:52;3.50;;;0.90;;
75499;SDS011;64076;51.466;7.260;2022-10-26T14:40:32;4.43;;;0.98;;
75499;SDS011;64076;51.466;7.260;2022-10-26T14:42:59;1.95;;;0.85;;
75499;SDS011;64076;51.466;7.260;2022-10-26T14:47:56;2.80;;;0.93;;
75499;SDS011;64076;51.466;7.260;2022-10-26T14:50:23;2.33;;;0.70;;
75499;SDS011;64076;51.466;7.260;2022-10-26T14:52:55;2.78;;;1.10;;
75499;SDS011;64076;51.466;7.260;2022-10-26T14:55:23;2.35;;;0.90;;
75499;SDS011;64076;51.466;7.260;2022-10-26T14:57:51;3.35;;;0.80;;
75499;SDS011;64076;51.466;7.260;2022-10-26T15:00:30;1.60;;;0.77;;
75499;SDS011;64076;51.466;7.260;2022-10-26T15:02:56;1.50;;;0.90;;
75499;SDS011;64076;51.466;7.260;2022-10-26T15:07:48;2.17;;;0.83;;
75499;SDS011;64076;51.466;7.260;2022-10-26T15:15:57;2.53;;;0.90;;
75499;SDS011;64076;51.466;7.260;2022-10-26T15:18:34;1.50;;;0.93;;
75499;SDS011;64076;51.466;7.260;2022-10-26T15:21:02;1.60;;;0.77;;
75499;SDS011;64076;51.466;7.260;2022-10-26T15:23:30;2.38;;;0.80;;
75499;SDS011;64076;51.466;7.260;2022-10-26T15:25:59;1.35;;;0.70;;
75499;SDS011;64076;51.466;7.260;2022-10-26T15:28:30;1.30;;;0.70;;
75499;SDS011;64076;51.466;7.260;2022-10-26T15:31:04;2.00;;;0.93;;
75499;SDS011;64076;51.466;7.260;2022-10-26T15:36:16;1.75;;;0.80;;
75499;SDS011;64076;51.466;7.260;2022-10-26T15:38:42;1.20;;;0.60;;
75499;SDS011;64076;51.466;7.260;2022-10-26T15:41:16;1.40;;;0.65;;
75499;SDS011;64076;51.466;7.260;2022-10-26T15:43:51;3.23;;;0.90;;
75499;SDS011;64076;51.466;7.260;2022-10-26T15:46:20;1.98;;;1.02;;
75499;SDS011;64076;51.466;7.260;2022-10-26T15:48:48;1.60;;;0.90;;
75499;SDS011;64076;51.466;7.260;2022-10-26T15:51:18;2.42;;;0.90;;
75499;SDS011;64076;51.466;7.260;2022-10-26T15:53:44;1.90;;;0.77;;
75499;SDS011;64076;51.466;7.260;2022-10-26T15:56:12;1.43;;;0.87;;
75499;SDS011;64076;51.466;7.260;2022-10-26T15:58:40;1.88;;;0.60;;
75499;SDS011;64076;51.466;7.260;2022-10-26T16:01:05;2.07;;;0.60;;
75499;SDS011;64076;51.466;7.260;2022-10-26T16:03:31;1.48;;;0.68;;
75499;SDS011;64076;51.466;7.260;2022-10-26T16:06:00;1.67;;;0.80;;
75499;SDS011;64076;51.466;7.260;2022-10-26T16:08:27;1.95;;;0.85;;
75499;SDS011;64076;51.466;7.260;2022-10-26T16:10:55;1.85;;;0.98;;
75499;SDS011;64076;51.466;7.260;2022-10-26T16:13:21;1.80;;;0.80;;
75499;SDS011;64076;51.466;7.260;2022-10-26T16:15:47;1.58;;;0.77;;
75499;SDS011;64076;51.466;7.260;2022-10-26T16:18:12;2.80;;;0.70;;
75499;SDS011;64076;51.466;7.260;2022-10-26T16:20:38;1.63;;;0.80;;
75499;SDS011;64076;51.466;7.260;2022-10-26T16:23:04;1.92;;;0.80;;
75499;SDS011;64076;51.466;7.260;2022-10-26T16:25:31;2.08;;;0.80;;
75499;SDS011;64076;51.466;7.260;2022-10-26T16:27:58;2.35;;;0.70;;
75499;SDS011;64076;51.466;7.260;2022-10-26T16:30:24;2.13;;;0.90;;
75499;SDS011;64076;51.466;7.260;2022-10-26T16:32:49;2.57;;;1.10;;
75499;SDS011;64076;51.466;7.260;2022-10-26T16:35:15;2.60;;;0.90;;
75499;SDS011;64076;51.466;7.260;2022-10-26T16:37:41;1.67;;;0.93;;
75499;SDS011;64076;51.466;7.260;2022-10-26T16:40:06;1.57;;;0.80;;
75499;SDS011;64076;51.466;7.260;2022-10-26T16:42:33;1.27;;;0.70;;
75499;SDS011;64076;51.466;7.260;2022-10-26T16:44:59;2.45;;;0.93;;
75499;SDS011;64076;51.466;7.260;2022-10-26T16:47:25;1.97;;;1.10;;
75499;SDS011;64076;51.466;7.260;2022-10-26T16:49:51;1.88;;;1.00;;
75499;SDS011;64076;51.466;7.260;2022-10-26T16:52:16;2.42;;;0.80;;
75499;SDS011;64076;51.466;7.260;2022-10-26T16:54:42;2.53;;;1.00;;
75499;SDS011;64076;51.466;7.260;2022-10-26T16:57:07;2.17;;;0.90;;
75499;SDS011;64076;51.466;7.260;2022-10-26T16:59:33;1.35;;;0.60;;
75499;SDS011;64076;51.466;7.260;2022-10-26T17:01:59;1.43;;;0.93;;
75499;SDS011;64076;51.466;7.260;2022-10-26T17:04:24;1.83;;;0.90;;